Terminal Aerodrome Forecast
Issued by NWS Charleston, WV

Home | Current Version | Previous Version | Text Only | Print | Product List | Glossary On
Versions: 1 2 3 4 5 6 7 8 9 10 11 12 13 14 15 16 17 18 19 20 21
513
FTUS41 KRLX 240900 CCA
TAFCRW
TAF COR
KCRW 240900Z 2409/2506 07008KT P6SM -SHRA BKN045 OVC090
      TEMPO 2412/2415 5SM -SHRA
     FM241500 10008G16KT P6SM -SHRA OVC050
     FM242200 09008KT P6SM -SHRA OVC070
     FM250500 35003KT P6SM OVC030=

USA.gov is the U.S. government's official web portal to all federal, state and local government web resources and services.